Time;durP1;ratioP1;P1;durP2;ratioP2;P2;SDS_P1;SDS_P2;PMS_P1;PMS_P2;Temp;Humidity;BMP_temperature;BMP_pressure;BME280_temperature;BME280_humidity;BME280_pressure;Samples;Min_cycle;Max_cycle;Signal;HPM_P1;HPM_P2
2024/01/08 00:00:30;;;;;;;6.17;5.07;;;1.90;75.70;;;;;;10431982;28;20212;-63
2024/01/08 00:05:38;;;;;;;6.73;5.30;;;1.80;75.80;;;;;;10418858;28;20565;-60
2024/01/08 00:10:42;;;;;;;5.93;4.90;;;1.80;75.60;;;;;;10442423;28;20257;-61
2024/01/08 00:15:47;;;;;;;7.87;5.57;;;1.70;75.40;;;;;;10432341;28;20299;-62
2024/01/08 00:20:50;;;;;;;7.43;4.60;;;1.60;75.20;;;;;;10433680;28;20270;-62
2024/01/08 00:25:54;;;;;;;6.57;5.10;;;1.60;74.90;;;;;;10428642;28;20216;-61
2024/01/08 00:30:59;;;;;;;5.63;4.63;;;1.60;75.60;;;;;;10420315;28;20259;-61
2024/01/08 00:36:03;;;;;;;7.70;4.83;;;1.70;77.20;;;;;;10436208;28;20244;-61
2024/01/08 00:41:07;;;;;;;5.63;4.60;;;1.70;75.70;;;;;;10429045;28;20341;-60
2024/01/08 00:46:11;;;;;;;6.87;4.40;;;1.70;75.40;;;;;;10413015;28;20227;-63
2024/01/08 00:51:15;;;;;;;4.57;4.17;;;1.60;75.20;;;;;;10417770;28;20261;-60
2024/01/08 00:56:19;;;;;;;5.50;4.80;;;1.60;76.30;;;;;;10398385;28;20220;-60
2024/01/08 01:01:25;;;;;;;6.77;4.50;;;1.60;75.70;;;;;;10411891;28;20254;-63
2024/01/08 01:06:29;;;;;;;5.43;4.47;;;1.50;75.70;;;;;;10411262;28;20251;-59
2024/01/08 01:11:32;;;;;;;4.90;4.20;;;1.50;75.50;;;;;;10407293;28;20251;-62
2024/01/08 01:16:37;;;;;;;6.33;4.47;;;1.50;75.50;;;;;;10435366;28;20225;-63
2024/01/08 01:21:41;;;;;;;6.47;4.67;;;1.30;75.10;;;;;;10419531;28;20216;-62
2024/01/08 01:26:44;;;;;;;6.53;4.57;;;1.20;75.60;;;;;;10431720;28;20253;-63
2024/01/08 01:31:49;;;;;;;4.83;4.33;;;1.20;75.90;;;;;;10436099;28;20199;-60
2024/01/08 01:36:53;;;;;;;5.87;4.80;;;1.30;76.00;;;;;;10449406;28;20273;-62
2024/01/08 01:41:57;;;;;;;6.10;4.40;;;1.40;76.40;;;;;;10414500;28;20211;-62
2024/01/08 01:47:02;;;;;;;5.63;4.60;;;1.40;75.80;;;;;;10410634;28;20242;-62
2024/01/08 01:52:06;;;;;;;6.00;4.00;;;1.50;76.20;;;;;;10426828;28;20204;-63
2024/01/08 01:57:10;;;;;;;5.33;4.33;;;1.50;75.50;;;;;;10440362;28;20216;-61
2024/01/08 02:02:15;;;;;;;5.30;4.67;;;1.50;76.60;;;;;;10413206;28;20665;-63
2024/01/08 02:07:19;;;;;;;5.30;4.23;;;1.50;75.90;;;;;;10414937;28;20222;-63
2024/01/08 02:12:23;;;;;;;5.97;4.70;;;1.50;75.80;;;;;;10414809;28;20203;-63
2024/01/08 02:17:28;;;;;;;5.10;4.27;;;1.50;76.70;;;;;;10408725;28;20285;-62
2024/01/08 02:22:31;;;;;;;5.83;4.90;;;1.50;76.60;;;;;;10417080;28;20218;-62
2024/01/08 02:27:36;;;;;;;7.10;4.53;;;1.50;76.20;;;;;;10429191;28;20223;-63
2024/01/08 02:32:40;;;;;;;6.23;4.73;;;1.50;76.50;;;;;;10421296;28;20202;-61
2024/01/08 02:37:44;;;;;;;6.40;4.97;;;1.50;76.90;;;;;;10415808;28;20217;-61
2024/01/08 02:42:49;;;;;;;5.87;4.90;;;1.50;76.70;;;;;;10423829;28;20210;-63
2024/01/08 02:47:52;;;;;;;7.10;4.80;;;1.50;76.00;;;;;;10412835;28;20216;-59
2024/01/08 02:52:56;;;;;;;5.60;4.83;;;1.50;76.30;;;;;;10410365;28;20196;-64
2024/01/08 02:58:04;;;;;;;6.93;4.63;;;1.60;76.50;;;;;;10408499;28;20217;-61
2024/01/08 03:03:08;;;;;;;7.27;5.20;;;1.60;76.30;;;;;;10406427;28;20231;-62
2024/01/08 03:08:11;;;;;;;10.20;5.53;;;1.60;77.30;;;;;;10409015;28;20219;-63
2024/01/08 03:13:16;;;;;;;6.07;5.00;;;1.60;76.90;;;;;;10411111;28;20233;-63
2024/01/08 03:18:20;;;;;;;8.00;5.30;;;1.60;76.80;;;;;;10450746;28;20238;-62
2024/01/08 03:23:24;;;;;;;6.20;5.13;;;1.70;77.20;;;;;;10442231;28;20239;-60
2024/01/08 03:28:29;;;;;;;6.23;4.87;;;1.70;76.70;;;;;;10401900;28;20246;-65
2024/01/08 03:33:32;;;;;;;8.13;5.87;;;1.70;76.90;;;;;;10389688;28;20258;-63
2024/01/08 03:38:36;;;;;;;5.33;4.83;;;1.70;77.10;;;;;;10415460;28;20223;-65
2024/01/08 03:43:43;;;;;;;7.70;5.37;;;1.70;76.80;;;;;;10411982;28;20285;-64
2024/01/08 03:48:48;;;;;;;7.57;6.00;;;1.70;77.10;;;;;;10408423;28;20237;-63
2024/01/08 03:53:53;;;;;;;6.90;5.70;;;1.70;77.70;;;;;;10416214;28;20196;-62
2024/01/08 03:58:58;;;;;;;6.40;5.60;;;1.70;77.20;;;;;;10412266;28;20220;-63
2024/01/08 04:04:02;;;;;;;7.90;5.83;;;1.60;77.30;;;;;;10418651;28;20256;-64
2024/01/08 04:09:05;;;;;;;7.10;5.97;;;1.50;77.90;;;;;;10410790;28;20253;-63
2024/01/08 04:14:12;;;;;;;7.90;6.07;;;1.50;78.00;;;;;;10412317;28;20201;-63
2024/01/08 04:19:15;;;;;;;9.07;6.00;;;1.50;78.20;;;;;;10413934;28;20266;-64
2024/01/08 04:24:19;;;;;;;7.73;6.10;;;1.50;77.50;;;;;;10412635;28;20231;-65
2024/01/08 04:29:24;;;;;;;8.23;6.53;;;1.40;77.80;;;;;;10406636;28;20780;-61
2024/01/08 04:34:27;;;;;;;7.90;6.07;;;1.50;77.50;;;;;;10411337;28;20172;-65
2024/01/08 04:39:31;;;;;;;9.47;6.53;;;1.40;77.20;;;;;;10407806;28;20324;-65
2024/01/08 04:44:36;;;;;;;8.17;6.00;;;1.30;78.00;;;;;;10409524;28;20359;-67
2024/01/08 04:49:41;;;;;;;8.33;6.27;;;1.30;77.90;;;;;;10413993;28;20217;-65
2024/01/08 04:54:45;;;;;;;7.80;6.60;;;1.30;77.70;;;;;;10413279;28;20231;-64
2024/01/08 04:59:50;;;;;;;8.47;6.57;;;1.40;78.40;;;;;;10414728;28;20224;-64
2024/01/08 05:04:53;;;;;;;8.87;6.57;;;1.40;78.20;;;;;;10413316;28;20329;-60
2024/01/08 05:09:57;;;;;;;8.93;6.53;;;1.40;78.30;;;;;;10416268;28;20590;-64
2024/01/08 05:15:03;;;;;;;9.70;6.87;;;1.40;78.50;;;;;;10419536;28;20199;-66
2024/01/08 05:20:09;;;;;;;9.00;6.47;;;1.50;79.10;;;;;;10418397;28;20274;-66
2024/01/08 05:25:13;;;;;;;10.00;7.40;;;1.50;78.90;;;;;;10422921;28;20207;-63
2024/01/08 05:30:18;;;;;;;9.57;7.00;;;1.50;78.80;;;;;;10407214;28;20277;-65
2024/01/08 05:35:22;;;;;;;9.87;7.50;;;1.50;78.70;;;;;;10410074;28;20278;-62
2024/01/08 05:40:26;;;;;;;11.53;7.27;;;1.50;78.70;;;;;;10412429;28;20213;-64
2024/01/08 05:45:30;;;;;;;11.33;7.53;;;1.50;78.60;;;;;;10418824;28;20742;-64
2024/01/08 05:50:34;;;;;;;11.63;7.67;;;1.40;78.40;;;;;;10435682;28;20196;-61
2024/01/08 05:55:38;;;;;;;9.37;7.43;;;1.40;78.50;;;;;;10421030;28;20224;-61
2024/01/08 06:00:43;;;;;;;11.43;7.87;;;1.30;78.80;;;;;;10409745;28;20696;-65
2024/01/08 06:05:47;;;;;;;11.13;7.87;;;1.40;80.20;;;;;;10402133;28;20289;-62
2024/01/08 06:10:50;;;;;;;9.90;7.53;;;1.40;79.80;;;;;;10435664;28;20223;-62
2024/01/08 06:15:56;;;;;;;9.77;7.67;;;1.50;79.10;;;;;;10421395;28;20223;-62
2024/01/08 06:21:00;;;;;;;9.57;7.07;;;1.50;79.50;;;;;;10411287;28;20220;-63
2024/01/08 06:26:03;;;;;;;10.50;7.00;;;1.60;79.40;;;;;;10413274;28;20220;-64
2024/01/08 06:31:08;;;;;;;8.83;6.27;;;1.50;79.40;;;;;;10407257;28;20357;-65
2024/01/08 06:36:15;;;;;;;7.57;6.03;;;1.50;79.70;;;;;;10411606;28;20651;-63
2024/01/08 06:41:18;;;;;;;6.70;5.53;;;1.60;78.90;;;;;;10423480;28;20744;-65
2024/01/08 06:46:23;;;;;;;6.53;5.60;;;1.70;79.50;;;;;;10409861;28;20251;-65
2024/01/08 06:51:27;;;;;;;6.40;5.43;;;1.70;79.90;;;;;;10411269;28;20223;-65
2024/01/08 06:56:30;;;;;;;8.67;5.67;;;1.80;79.90;;;;;;10414336;28;20582;-64
2024/01/08 07:01:35;;;;;;;7.57;5.10;;;1.80;78.90;;;;;;10407422;28;20250;-65
2024/01/08 07:06:39;;;;;;;8.03;6.20;;;1.80;78.60;;;;;;10409673;28;20709;-66
2024/01/08 07:11:43;;;;;;;9.23;5.83;;;1.80;78.40;;;;;;10409073;28;20262;-66
2024/01/08 07:16:47;;;;;;;9.57;7.95;;;1.70;78.80;;;;;;10418675;28;20803;-64
2024/01/08 07:21:51;;;;;;;9.03;6.10;;;1.80;78.60;;;;;;10428622;28;20247;-65
2024/01/08 07:26:55;;;;;;;7.93;6.07;;;1.90;79.20;;;;;;10406175;28;20286;-63
2024/01/08 07:32:01;;;;;;;8.20;6.20;;;1.80;79.10;;;;;;10406415;28;20199;-64
2024/01/08 07:37:04;;;;;;;7.57;6.23;;;1.70;79.80;;;;;;10407941;28;20710;-63
2024/01/08 07:42:08;;;;;;;6.17;5.50;;;1.80;79.80;;;;;;10409173;28;20219;-64
2024/01/08 07:47:13;;;;;;;6.97;5.70;;;1.80;79.50;;;;;;10408917;28;20269;-61
2024/01/08 07:52:17;;;;;;;8.60;5.97;;;1.70;79.80;;;;;;10408089;28;20219;-66
2024/01/08 07:57:27;;;;;;;7.80;6.20;;;1.70;80.00;;;;;;10407789;28;20274;-64
2024/01/08 08:02:32;;;;;;;8.50;6.50;;;1.70;80.20;;;;;;10408642;28;20212;-63
2024/01/08 08:07:36;;;;;;;7.60;5.47;;;1.70;80.20;;;;;;10408765;28;20305;-62
2024/01/08 08:12:40;;;;;;;7.00;6.00;;;1.60;80.80;;;;;;10408857;28;20251;-63
2024/01/08 08:17:45;;;;;;;9.23;6.47;;;1.70;80.90;;;;;;10414129;28;20807;-63
2024/01/08 08:22:48;;;;;;;8.03;5.70;;;1.80;80.60;;;;;;10416312;28;20224;-64
2024/01/08 08:27:55;;;;;;;7.73;6.00;;;1.80;80.60;;;;;;10416224;28;20242;-63
2024/01/08 08:33:00;;;;;;;7.63;6.00;;;1.80;81.10;;;;;;10416081;28;20670;-63
2024/01/08 08:38:04;;;;;;;8.43;6.27;;;1.80;81.40;;;;;;10415811;28;20227;-63
2024/01/08 08:43:08;;;;;;;8.10;5.70;;;1.80;81.00;;;;;;10446277;28;20226;-64
2024/01/08 08:48:13;;;;;;;7.90;5.87;;;1.70;81.30;;;;;;10415412;28;20272;-63
2024/01/08 08:53:16;;;;;;;6.57;5.37;;;1.70;81.00;;;;;;10415600;28;20203;-64
2024/01/08 08:58:23;;;;;;;6.90;5.33;;;1.70;80.40;;;;;;10414929;28;20768;-63
2024/01/08 09:03:28;;;;;;;5.80;4.13;;;1.80;80.10;;;;;;10414977;28;20210;-63
2024/01/08 09:08:31;;;;;;;7.77;4.37;;;1.80;78.20;;;;;;10414666;28;20223;-64
2024/01/08 09:13:35;;;;;;;6.60;4.27;;;1.70;78.80;;;;;;10414463;28;20198;-62
2024/01/08 09:18:40;;;;;;;5.77;3.97;;;1.70;78.60;;;;;;10414169;28;20239;-63
2024/01/08 09:23:44;;;;;;;4.87;3.53;;;1.70;78.20;;;;;;10413637;28;20773;-63
2024/01/08 09:28:49;;;;;;;4.57;3.47;;;1.80;77.10;;;;;;10412933;28;20269;-66
2024/01/08 09:33:54;;;;;;;5.13;3.40;;;1.80;79.10;;;;;;10412763;28;20244;-63
2024/01/08 09:38:57;;;;;;;6.83;3.63;;;1.90;74.60;;;;;;10413679;28;20223;-62
2024/01/08 09:44:05;;;;;;;4.93;3.53;;;1.90;74.00;;;;;;10413131;28;20223;-64
2024/01/08 09:49:11;;;;;;;5.23;3.70;;;1.90;74.60;;;;;;10413053;28;20590;-63
2024/01/08 09:54:18;;;;;;;4.33;2.87;;;1.80;73.50;;;;;;10412876;28;20203;-64
2024/01/08 09:59:22;;;;;;;3.87;3.00;;;1.70;69.40;;;;;;10412809;28;20730;-61
2024/01/08 10:04:27;;;;;;;5.17;3.03;;;1.70;72.30;;;;;;10419403;28;20625;-67
2024/01/08 10:09:31;;;;;;;4.23;3.30;;;1.70;72.60;;;;;;10413155;28;20226;-62
2024/01/08 10:14:35;;;;;;;6.23;3.10;;;1.70;73.30;;;;;;10412836;28;20193;-64
2024/01/08 10:19:40;;;;;;;4.73;2.93;;;1.70;71.80;;;;;;10412513;28;20274;-65
2024/01/08 10:24:46;;;;;;;4.33;3.20;;;1.80;71.40;;;;;;10412373;28;20214;-66
2024/01/08 10:29:50;;;;;;;4.40;3.07;;;1.80;74.40;;;;;;10424996;28;20240;-65
2024/01/08 10:34:56;;;;;;;3.57;3.00;;;1.80;75.50;;;;;;10452208;28;20199;-66
2024/01/08 10:40:02;;;;;;;4.23;3.30;;;1.90;77.00;;;;;;10407847;28;20294;-64
2024/01/08 10:45:08;;;;;;;3.90;2.70;;;1.90;72.70;;;;;;10431941;28;20222;-65
2024/01/08 10:50:14;;;;;;;4.90;3.63;;;1.80;69.10;;;;;;10410583;28;20641;-63
2024/01/08 10:55:18;;;;;;;5.00;3.72;;;1.70;68.00;;;;;;10419176;28;20539;-65
2024/01/08 11:00:23;;;;;;;5.77;3.70;;;1.70;64.00;;;;;;10411772;28;20435;-65
2024/01/08 11:05:39;;;;;;;4.83;3.37;;;1.80;66.80;;;;;;10424769;28;20417;-65
2024/01/08 11:10:44;;;;;;;3.63;2.90;;;1.80;73.50;;;;;;10410538;28;20211;-62
2024/01/08 11:15:49;;;;;;;2.97;2.67;;;1.80;68.20;;;;;;10409712;28;20227;-63
2024/01/08 11:20:56;;;;;;;4.30;3.00;;;1.90;67.50;;;;;;10419486;28;20300;-66
2024/01/08 11:26:00;;;;;;;4.57;2.80;;;1.90;67.60;;;;;;10408834;28;20249;-64
2024/01/08 11:31:42;;;;;;;4.10;3.10;;;1.80;66.00;;;;;;10408955;28;20195;-63
2024/01/08 11:36:48;;;;;;;5.87;3.10;;;1.60;65.30;;;;;;10409380;28;20257;-64
2024/01/08 11:41:52;;;;;;;5.17;3.20;;;1.60;66.60;;;;;;10409519;28;20254;-65
2024/01/08 11:46:56;;;;;;;5.13;3.13;;;1.60;66.40;;;;;;10408380;28;20220;-65
2024/01/08 11:52:02;;;;;;;2.90;2.53;;;1.50;64.70;;;;;;10423351;28;20253;-65
2024/01/08 11:57:07;;;;;;;4.03;3.00;;;1.50;69.00;;;;;;10458410;28;20226;-63
2024/01/08 12:02:15;;;;;;;4.23;2.87;;;1.60;67.10;;;;;;10444966;28;20614;-62
2024/01/08 12:07:21;;;;;;;3.70;2.63;;;1.70;70.00;;;;;;10417622;28;20710;-62
2024/01/08 12:12:25;;;;;;;4.33;3.07;;;1.70;67.20;;;;;;10417623;28;20200;-62
2024/01/08 12:17:29;;;;;;;5.10;2.87;;;1.70;65.90;;;;;;10417201;28;20220;-62
2024/01/08 12:22:34;;;;;;;3.53;3.13;;;1.80;65.60;;;;;;10422409;28;20242;-63
2024/01/08 12:27:40;;;;;;;5.15;3.90;;;1.80;63.70;;;;;;10415705;28;20445;-62
2024/01/08 12:32:44;;;;;;;4.75;3.75;;;2.00;61.00;;;;;;10415070;28;20491;-63
2024/01/08 12:37:50;;;;;;;3.73;2.80;;;2.10;59.20;;;;;;10416500;28;20207;-63
2024/01/08 12:42:53;;;;;;;4.27;3.23;;;2.20;63.90;;;;;;10416153;28;20286;-62
2024/01/08 12:47:57;;;;;;;3.73;2.60;;;2.40;62.10;;;;;;10415222;28;20228;-63
2024/01/08 12:53:03;;;;;;;3.23;2.70;;;2.50;64.00;;;;;;10407569;28;20752;-62
2024/01/08 12:58:07;;;;;;;6.83;3.50;;;2.70;63.60;;;;;;10420312;28;20277;-64
2024/01/08 13:03:11;;;;;;;4.87;3.10;;;2.90;72.60;;;;;;10421337;28;20216;-66
2024/01/08 13:08:15;;;;;;;3.47;2.60;;;3.00;64.70;;;;;;10415547;28;20611;-65
2024/01/08 13:13:19;;;;;;;4.83;3.07;;;3.10;63.30;;;;;;10409967;28;20187;-65
2024/01/08 13:18:23;;;;;;;3.87;3.07;;;3.10;63.70;;;;;;10397678;28;20274;-64
2024/01/08 13:23:28;;;;;;;4.53;3.00;;;3.10;64.40;;;;;;10413949;28;20221;-67
2024/01/08 13:28:31;;;;;;;4.23;2.90;;;3.20;65.20;;;;;;10420237;28;20932;-64
2024/01/08 13:33:35;;;;;;;4.80;2.83;;;3.10;64.40;;;;;;10413714;28;20200;-65
2024/01/08 13:38:40;;;;;;;3.90;2.60;;;3.10;62.10;;;;;;10413868;28;20223;-63
2024/01/08 13:43:44;;;;;;;3.87;2.87;;;3.10;61.70;;;;;;10413226;28;20216;-64
2024/01/08 13:48:47;;;;;;;3.10;2.73;;;3.00;61.50;;;;;;10413259;28;20223;-63
2024/01/08 13:53:53;;;;;;;3.33;2.40;;;2.90;60.80;;;;;;10412689;28;20215;-63
2024/01/08 13:58:57;;;;;;;5.00;2.60;;;2.80;62.50;;;;;;10413076;28;20282;-63
2024/01/08 14:04:01;;;;;;;4.83;3.00;;;2.60;60.70;;;;;;10433073;28;20195;-63
2024/01/08 14:09:06;;;;;;;4.88;2.95;;;2.40;64.40;;;;;;10454271;28;20440;-63
2024/01/08 14:14:09;;;;;;;2.97;2.50;;;2.30;61.10;;;;;;10454224;28;20202;-64
2024/01/08 14:19:13;;;;;;;4.65;3.40;;;2.20;64.40;;;;;;10456015;28;20444;-64
2024/01/08 14:24:18;;;;;;;5.87;2.77;;;2.20;60.20;;;;;;10453063;28;20220;-64
2024/01/08 14:29:22;;;;;;;3.30;2.70;;;2.20;63.80;;;;;;10452837;28;20312;-62
2024/01/08 14:34:27;;;;;;;4.50;3.07;;;2.10;63.90;;;;;;10418206;28;20200;-63
2024/01/08 14:39:33;;;;;;;4.50;3.10;;;2.20;63.90;;;;;;10411369;28;20221;-61
2024/01/08 14:44:37;;;;;;;3.53;2.73;;;2.20;65.50;;;;;;10410729;28;20211;-60
2024/01/08 14:49:40;;;;;;;3.83;3.07;;;2.10;62.30;;;;;;10409855;28;20575;-63
2024/01/08 14:54:45;;;;;;;6.37;3.13;;;2.00;60.70;;;;;;10410904;28;20259;-63
2024/01/08 14:59:49;;;;;;;4.00;2.93;;;2.00;60.10;;;;;;10411002;28;20664;-61
2024/01/08 15:04:52;;;;;;;4.30;2.73;;;1.90;61.70;;;;;;10411289;28;20215;-63
2024/01/08 15:09:58;;;;;;;5.13;3.23;;;2.00;60.10;;;;;;10411658;28;20246;-62
2024/01/08 15:15:01;;;;;;;4.67;3.00;;;1.80;66.30;;;;;;10411199;28;20233;-63
2024/01/08 15:20:06;;;;;;;3.70;2.90;;;1.80;64.80;;;;;;10410117;28;20650;-61
2024/01/08 15:25:12;;;;;;;4.80;2.83;;;1.80;63.00;;;;;;10409607;28;20573;-63
2024/01/08 15:30:17;;;;;;;6.00;3.40;;;1.70;64.00;;;;;;10409407;28;20713;-63
2024/01/08 15:35:21;;;;;;;5.27;3.70;;;1.70;62.50;;;;;;10409512;28;20203;-62
2024/01/08 15:40:26;;;;;;;4.50;3.00;;;1.80;63.20;;;;;;10409311;28;20263;-62
2024/01/08 15:45:30;;;;;;;3.70;2.80;;;1.70;60.70;;;;;;10409091;28;20207;-62
2024/01/08 15:50:33;;;;;;;4.07;3.57;;;1.70;60.60;;;;;;10409311;28;20208;-64
2024/01/08 15:55:38;;;;;;;5.23;3.37;;;1.60;62.50;;;;;;10410190;28;20498;-61
2024/01/08 16:00:43;;;;;;;3.67;3.10;;;1.50;61.20;;;;;;10410902;28;20211;-62
2024/01/08 16:05:50;;;;;;;5.63;3.80;;;1.40;61.10;;;;;;10410496;28;20275;-64
2024/01/08 16:10:55;;;;;;;4.53;3.17;;;1.40;60.10;;;;;;10409705;28;20189;-63
2024/01/08 16:15:59;;;;;;;3.93;3.30;;;1.40;62.20;;;;;;10408686;28;20323;-64
2024/01/08 16:21:03;;;;;;;5.43;3.77;;;1.40;60.20;;;;;;10409325;28;20590;-63
2024/01/08 16:26:08;;;;;;;3.83;3.10;;;1.30;61.00;;;;;;10409515;28;20245;-63
2024/01/08 16:31:12;;;;;;;5.33;3.47;;;1.20;59.90;;;;;;10409712;28;20183;-62
2024/01/08 16:36:15;;;;;;;5.40;3.77;;;1.20;64.90;;;;;;10410910;28;20278;-63
2024/01/08 16:41:21;;;;;;;6.33;3.43;;;1.10;60.40;;;;;;10417075;28;20550;-60
2024/01/08 16:46:25;;;;;;;4.63;3.30;;;1.00;60.40;;;;;;10408942;28;21061;-63
2024/01/08 16:51:28;;;;;;;8.00;3.67;;;1.00;64.70;;;;;;10417053;28;20229;-63
2024/01/08 16:56:33;;;;;;;5.07;3.30;;;1.00;61.60;;;;;;10416704;28;20356;-63
2024/01/08 17:01:37;;;;;;;4.87;3.30;;;0.90;63.60;;;;;;10416590;28;20724;-64
2024/01/08 17:06:41;;;;;;;5.03;3.30;;;0.90;63.60;;;;;;10416194;28;20366;-61
2024/01/08 17:11:46;;;;;;;4.53;3.57;;;0.90;63.80;;;;;;10416286;28;20193;-63
2024/01/08 17:16:50;;;;;;;5.77;4.17;;;0.90;63.40;;;;;;10415808;28;20215;-64
2024/01/08 17:21:53;;;;;;;5.13;3.33;;;0.90;62.40;;;;;;10416296;28;20266;-61
2024/01/08 17:26:58;;;;;;;4.87;3.47;;;0.80;61.40;;;;;;10414628;28;20234;-63
2024/01/08 17:32:02;;;;;;;4.70;3.57;;;0.90;62.80;;;;;;10417099;28;20628;-66
2024/01/08 17:37:08;;;;;;;5.50;3.70;;;0.90;63.10;;;;;;10277896;28;97063;-60
2024/01/08 17:42:13;;;;;;;4.97;3.90;;;0.80;64.80;;;;;;10339987;28;20244;-58
2024/01/08 17:47:17;;;;;;;5.80;3.57;;;0.80;63.30;;;;;;10339899;28;20284;-59
2024/01/08 17:52:21;;;;;;;5.43;3.67;;;0.70;61.90;;;;;;10338563;28;20844;-60
2024/01/08 17:57:25;;;;;;;5.03;3.83;;;0.70;61.90;;;;;;10337499;28;20229;-60
2024/01/08 18:02:29;;;;;;;9.10;4.77;;;0.70;60.00;;;;;;10330852;28;20202;-59
2024/01/08 18:07:33;;;;;;;6.37;3.60;;;0.70;61.30;;;;;;10336626;28;20224;-59
2024/01/08 18:12:38;;;;;;;5.63;4.20;;;0.70;62.60;;;;;;10335963;28;20237;-60
2024/01/08 18:17:46;;;;;;;5.90;4.07;;;0.70;63.00;;;;;;10333457;28;20222;-60
2024/01/08 18:22:50;;;;;;;6.17;3.80;;;0.60;63.90;;;;;;10337446;28;20741;-62
2024/01/08 18:27:54;;;;;;;4.43;3.80;;;0.60;63.30;;;;;;10331198;28;20201;-59
2024/01/08 18:32:58;;;;;;;6.00;3.67;;;0.60;62.60;;;;;;10343747;28;20260;-61
2024/01/08 18:38:02;;;;;;;5.87;4.13;;;0.70;61.90;;;;;;10336488;28;20241;-60
2024/01/08 18:43:07;;;;;;;5.73;4.03;;;0.70;63.40;;;;;;10334153;28;20684;-60
2024/01/08 18:48:10;;;;;;;4.97;4.00;;;0.70;60.00;;;;;;10336605;28;20249;-60
2024/01/08 18:53:14;;;;;;;5.90;3.53;;;0.70;60.30;;;;;;10332346;28;20204;-61
2024/01/08 18:58:19;;;;;;;5.73;4.20;;;0.70;60.80;;;;;;10325672;28;20686;-60
2024/01/08 19:03:23;;;;;;;6.50;3.93;;;0.60;64.20;;;;;;10330445;28;20279;-61
2024/01/08 19:08:28;;;;;;;6.30;3.90;;;0.60;63.20;;;;;;10328857;28;20221;-61
2024/01/08 19:13:38;;;;;;;7.50;4.27;;;0.60;63.30;;;;;;10349091;28;20221;-61
2024/01/08 19:18:44;;;;;;;5.00;3.30;;;0.60;61.40;;;;;;10331510;28;20894;-61
2024/01/08 19:23:47;;;;;;;6.87;4.13;;;0.60;61.60;;;;;;10325373;28;20217;-61
2024/01/08 19:28:52;;;;;;;5.40;3.57;;;0.60;61.80;;;;;;10338464;28;20545;-60
2024/01/08 19:33:56;;;;;;;5.40;3.83;;;0.60;63.80;;;;;;10336043;28;20264;-60
2024/01/08 19:39:00;;;;;;;5.13;4.03;;;0.60;60.50;;;;;;10334333;28;20257;-61
2024/01/08 19:44:05;;;;;;;5.50;4.03;;;0.50;60.90;;;;;;10343637;28;20735;-61
2024/01/08 19:49:09;;;;;;;5.77;3.97;;;0.50;62.40;;;;;;10347947;28;20221;-59
2024/01/08 19:54:28;;;;;;;6.63;4.43;;;0.40;62.20;;;;;;10331174;28;20268;-59
2024/01/08 19:59:33;;;;;;;4.93;3.70;;;0.40;62.50;;;;;;10334491;28;20225;-61
2024/01/08 20:04:37;;;;;;;6.53;4.90;;;0.40;60.80;;;;;;10320488;28;20512;-60
2024/01/08 20:09:41;;;;;;;5.43;3.73;;;0.50;60.60;;;;;;10332847;28;20734;-60
2024/01/08 20:14:46;;;;;;;5.50;3.77;;;0.40;60.50;;;;;;10341828;28;20194;-61
2024/01/08 20:19:58;;;;;;;6.20;4.17;;;0.50;60.40;;;;;;10335768;28;20578;-60
2024/01/08 20:25:01;;;;;;;6.80;3.97;;;0.40;61.60;;;;;;10351449;28;20240;-60
2024/01/08 20:30:07;;;;;;;7.27;4.30;;;0.40;62.50;;;;;;10340567;28;20288;-60
2024/01/08 20:35:11;;;;;;;6.67;3.93;;;0.30;60.20;;;;;;10338607;28;20676;-61
2024/01/08 20:40:15;;;;;;;5.67;3.70;;;0.20;61.60;;;;;;10345469;28;20218;-61
2024/01/08 20:45:21;;;;;;;6.47;4.20;;;0.20;59.80;;;;;;10335598;28;20225;-61
2024/01/08 20:50:25;;;;;;;5.93;4.20;;;0.30;60.90;;;;;;10346136;28;20213;-61
2024/01/08 20:55:29;;;;;;;6.03;3.70;;;0.30;60.90;;;;;;10341979;28;20197;-60
2024/01/08 21:00:34;;;;;;;6.93;4.20;;;0.20;59.90;;;;;;10338125;28;20256;-62
2024/01/08 21:05:38;;;;;;;5.40;4.20;;;0.10;60.50;;;;;;10338160;28;20268;-60
2024/01/08 21:10:42;;;;;;;6.30;4.27;;;0.10;60.00;;;;;;10343077;28;20744;-61
2024/01/08 21:15:47;;;;;;;5.97;4.40;;;0.10;61.90;;;;;;10341294;28;20288;-60
2024/01/08 21:20:50;;;;;;;5.80;3.83;;;0.10;59.40;;;;;;10337815;28;20555;-60
2024/01/08 21:25:55;;;;;;;7.10;4.47;;;0.20;62.00;;;;;;10344346;28;20732;-61
2024/01/08 21:31:00;;;;;;;5.23;3.93;;;0.20;60.80;;;;;;10328788;28;20198;-60
2024/01/08 21:36:05;;;;;;;6.17;4.47;;;0.20;62.80;;;;;;10343261;28;20249;-61
2024/01/08 21:41:08;;;;;;;6.27;3.97;;;0.20;59.80;;;;;;10341982;28;20726;-61
2024/01/08 21:46:13;;;;;;;5.70;4.03;;;0.20;60.10;;;;;;10340623;28;20264;-61
2024/01/08 21:51:17;;;;;;;5.40;4.17;;;0.20;61.60;;;;;;10342019;28;20213;-60
2024/01/08 21:56:20;;;;;;;6.73;4.40;;;0.10;59.60;;;;;;10345608;28;20222;-61
2024/01/08 22:01:25;;;;;;;6.90;5.55;;;0.10;60.30;;;;;;10341362;28;20513;-66
2024/01/08 22:06:29;;;;;;;5.47;4.17;;;0.40;59.10;;;;;;10335219;28;20256;-65
2024/01/08 22:11:33;;;;;;;6.77;4.20;;;0.30;61.50;;;;;;10335600;28;20206;-65
2024/01/08 22:16:37;;;;;;;5.83;3.80;;;0.30;61.50;;;;;;10339656;28;20217;-65
2024/01/08 22:21:41;;;;;;;5.40;4.00;;;0.30;61.80;;;;;;10337054;28;20210;-63
2024/01/08 22:26:45;;;;;;;7.30;4.40;;;0.20;62.10;;;;;;10337206;28;20229;-64
2024/01/08 22:31:50;;;;;;;5.93;4.07;;;0.20;61.90;;;;;;10344864;28;20665;-64
2024/01/08 22:36:53;;;;;;;6.90;4.07;;;0.20;61.00;;;;;;10342187;28;20221;-64
2024/01/08 22:41:57;;;;;;;6.27;4.47;;;0.20;61.30;;;;;;10347953;28;20217;-64
2024/01/08 22:47:02;;;;;;;6.87;4.30;;;0.20;60.00;;;;;;10334833;28;20224;-64
2024/01/08 22:52:07;;;;;;;6.43;3.67;;;0.10;62.50;;;;;;10335497;28;20276;-63
2024/01/08 22:57:10;;;;;;;6.33;4.60;;;0.00;61.00;;;;;;10335021;28;20235;-64
2024/01/08 23:02:15;;;;;;;5.40;3.93;;;0.00;62.10;;;;;;10343380;28;20197;-64
2024/01/08 23:07:19;;;;;;;5.57;3.93;;;-0.10;60.60;;;;;;10338143;28;20221;-62
2024/01/08 23:12:22;;;;;;;5.47;3.47;;;-0.10;61.00;;;;;;10340891;28;20248;-63
2024/01/08 23:17:27;;;;;;;4.87;3.53;;;-0.10;59.60;;;;;;10335552;28;20214;-63
2024/01/08 23:22:31;;;;;;;7.40;3.60;;;-0.10;59.90;;;;;;10337038;28;20260;-63
2024/01/08 23:27:35;;;;;;;6.40;4.10;;;-0.10;58.90;;;;;;10336967;28;20224;-63
2024/01/08 23:32:40;;;;;;;4.10;3.67;;;-0.10;58.60;;;;;;10337011;28;20209;-63
2024/01/08 23:37:43;;;;;;;4.60;3.37;;;-0.10;58.60;;;;;;10328119;28;20221;-64
2024/01/08 23:42:47;;;;;;;7.03;4.00;;;-0.10;58.50;;;;;;10342911;28;20201;-64
2024/01/08 23:47:52;;;;;;;5.20;4.17;;;-0.20;58.10;;;;;;10333597;28;20229;-64
2024/01/08 23:52:56;;;;;;;4.77;3.63;;;-0.30;58.40;;;;;;10339009;28;20247;-64
2024/01/08 23:57:59;;;;;;;4.53;3.37;;;-0.20;58.80;;;;;;10334130;28;20252;-64
